createdAt,value
2022-12-07T00:00:56.913Z,10.60
2022-12-07T00:03:24.624Z,10.60
2022-12-07T00:05:52.265Z,10.60
2022-12-07T00:08:20.061Z,10.60
2022-12-07T00:10:49.158Z,10.60
2022-12-07T00:13:16.936Z,10.60
2022-12-07T00:15:44.970Z,10.60
2022-12-07T00:18:12.583Z,10.50
2022-12-07T00:20:40.285Z,10.50
2022-12-07T00:23:08.091Z,10.50
2022-12-07T00:25:35.868Z,10.60
2022-12-07T00:28:05.235Z,10.60
2022-12-07T00:30:32.985Z,10.50
2022-12-07T00:33:00.695Z,10.50
2022-12-07T00:35:28.354Z,10.50
2022-12-07T00:37:56.003Z,10.50
2022-12-07T00:40:23.679Z,10.50
2022-12-07T00:42:51.287Z,10.50
2022-12-07T00:45:20.454Z,10.50
2022-12-07T00:47:48.024Z,10.50
2022-12-07T00:50:15.948Z,10.50
2022-12-07T00:52:43.666Z,10.50
2022-12-07T00:55:11.814Z,10.50
2022-12-07T00:57:39.430Z,10.50
2022-12-07T01:00:08.850Z,10.50
2022-12-07T01:02:37.951Z,10.50
2022-12-07T01:05:06.572Z,10.50
2022-12-07T01:07:34.176Z,10.50
2022-12-07T01:10:02.016Z,10.50
2022-12-07T01:12:29.996Z,10.50
2022-12-07T01:14:57.746Z,10.50
2022-12-07T01:17:25.341Z,10.50
2022-12-07T01:19:54.658Z,10.50
2022-12-07T01:22:22.220Z,10.50
2022-12-07T01:24:50.085Z,10.50
2022-12-07T01:27:17.844Z,10.50
2022-12-07T01:29:45.515Z,10.50
2022-12-07T01:32:13.078Z,10.50
2022-12-07T01:34:41.023Z,10.40
2022-12-07T01:37:10.199Z,10.40
2022-12-07T01:39:37.787Z,10.40
2022-12-07T01:42:05.653Z,10.40
2022-12-07T01:44:33.480Z,10.40
2022-12-07T01:47:01.780Z,10.40
2022-12-07T01:49:32.773Z,10.40
2022-12-07T01:52:07.348Z,10.40
2022-12-07T01:54:36.557Z,10.40
2022-12-07T01:57:04.177Z,10.40
2022-12-07T01:59:31.754Z,10.40
2022-12-07T02:01:59.404Z,10.40
2022-12-07T02:04:27.186Z,10.40
2022-12-07T02:06:54.910Z,10.40
2022-12-07T02:09:22.590Z,10.40
2022-12-07T02:11:51.621Z,10.40
2022-12-07T02:14:19.190Z,10.40
2022-12-07T02:16:53.191Z,10.40
2022-12-07T02:19:35.232Z,10.40
2022-12-07T02:22:07.107Z,10.30
2022-12-07T02:24:46.256Z,10.30
2022-12-07T02:27:31.045Z,10.30
2022-12-07T02:30:02.632Z,10.40
2022-12-07T02:32:34.728Z,10.40
2022-12-07T02:35:06.133Z,10.30
2022-12-07T02:37:37.426Z,10.30
2022-12-07T02:40:09.677Z,10.40
2022-12-07T02:42:40.027Z,10.30
2022-12-07T02:45:09.763Z,10.40
2022-12-07T02:47:37.380Z,10.40
2022-12-07T02:50:05.652Z,10.40
2022-12-07T02:52:33.443Z,10.40
2022-12-07T02:55:01.114Z,10.30
2022-12-07T02:57:49.044Z,10.30
2022-12-07T03:00:19.676Z,10.40
2022-12-07T03:02:55.496Z,10.30
2022-12-07T03:05:36.554Z,10.30
2022-12-07T03:08:06.654Z,10.30
2022-12-07T03:10:39.644Z,10.30
2022-12-07T03:13:10.967Z,10.30
2022-12-07T03:15:43.287Z,10.20
2022-12-07T03:18:11.236Z,10.30
2022-12-07T03:20:39.031Z,10.30
2022-12-07T03:23:07.175Z,10.30
2022-12-07T03:25:34.961Z,10.20
2022-12-07T03:28:04.292Z,10.20
2022-12-07T03:30:34.171Z,10.30
2022-12-07T03:33:04.848Z,10.20
2022-12-07T03:35:34.764Z,10.30
2022-12-07T03:38:06.437Z,10.20
2022-12-07T03:40:36.770Z,10.20
2022-12-07T03:43:04.470Z,10.20
2022-12-07T03:45:35.425Z,10.20
2022-12-07T03:48:07.704Z,10.20
2022-12-07T03:50:39.660Z,10.20
2022-12-07T03:53:10.294Z,10.20
2022-12-07T03:55:40.334Z,10.20
2022-12-07T03:58:09.091Z,10.20
2022-12-07T04:00:36.805Z,10.10
2022-12-07T04:03:06.158Z,10.10
2022-12-07T04:05:33.859Z,10.10
2022-12-07T04:08:01.539Z,10.10
2022-12-07T04:10:29.208Z,10.10
2022-12-07T04:12:56.933Z,10.10
2022-12-07T04:15:24.453Z,10.10
2022-12-07T04:17:52.123Z,10.10
2022-12-07T04:20:21.189Z,10.20
2022-12-07T04:22:48.954Z,10.10
2022-12-07T04:25:16.682Z,10.10
2022-12-07T04:27:44.340Z,10.10
2022-12-07T04:30:12.342Z,10.10
2022-12-07T04:32:39.951Z,10.10
2022-12-07T04:35:08.034Z,10.10
2022-12-07T04:37:37.267Z,10.10
2022-12-07T04:40:06.475Z,10.10
2022-12-07T04:42:34.039Z,10.10
2022-12-07T04:45:01.789Z,10.00
2022-12-07T04:47:29.463Z,10.00
2022-12-07T04:49:57.140Z,10.00
2022-12-07T04:52:24.712Z,10.00
2022-12-07T04:54:53.887Z,10.00
2022-12-07T04:57:21.513Z,10.00
2022-12-07T04:59:49.237Z,10.00
2022-12-07T05:02:17.003Z,10.00
2022-12-07T05:04:44.632Z,10.00
2022-12-07T05:07:12.369Z,10.00
2022-12-07T05:09:40.208Z,10.00
2022-12-07T05:12:09.309Z,10.00
2022-12-07T05:14:37.073Z,10.00
2022-12-07T05:17:04.858Z,10.00
2022-12-07T05:19:32.555Z,10.00
2022-12-07T05:22:00.248Z,10.00
2022-12-07T05:24:27.939Z,10.00
2022-12-07T05:26:55.665Z,10.00
2022-12-07T05:29:24.980Z,9.90
2022-12-07T05:31:52.782Z,9.90
2022-12-07T05:34:20.491Z,10.00
2022-12-07T05:36:48.185Z,10.00
2022-12-07T05:39:16.015Z,8.20
2022-12-07T05:41:43.742Z,10.00
2022-12-07T05:44:11.415Z,10.00
2022-12-07T05:46:40.786Z,10.00
2022-12-07T05:49:08.507Z,10.00
2022-12-07T05:51:36.022Z,10.00
2022-12-07T05:54:03.612Z,10.00
2022-12-07T05:56:31.330Z,10.00
2022-12-07T05:58:58.985Z,9.90
2022-12-07T06:01:26.577Z,9.90
2022-12-07T06:03:55.803Z,9.90
2022-12-07T06:06:23.406Z,10.00
2022-12-07T06:08:51.226Z,9.90
2022-12-07T06:11:18.817Z,9.90
2022-12-07T06:13:47.457Z,9.90
2022-12-07T06:16:15.462Z,9.90
2022-12-07T06:18:43.071Z,9.90
2022-12-07T06:21:12.192Z,9.90
2022-12-07T06:23:39.896Z,9.90
2022-12-07T06:26:07.742Z,9.90
2022-12-07T06:28:35.392Z,9.90
2022-12-07T06:31:03.137Z,9.90
2022-12-07T06:33:30.907Z,9.90
2022-12-07T06:35:58.553Z,9.90
2022-12-07T06:38:29.251Z,9.90
2022-12-07T06:40:56.912Z,10.00
2022-12-07T06:43:24.621Z,9.90
2022-12-07T06:45:52.413Z,9.90
2022-12-07T06:48:20.151Z,9.90
2022-12-07T06:50:52.947Z,9.90
2022-12-07T06:53:22.631Z,9.90
2022-12-07T06:55:51.692Z,9.90
2022-12-07T06:58:19.372Z,9.90
2022-12-07T07:00:47.292Z,9.90
2022-12-07T07:03:14.993Z,9.90
2022-12-07T07:05:43.284Z,9.90
2022-12-07T07:08:26.124Z,9.90
2022-12-07T07:10:55.844Z,9.90
2022-12-07T07:13:23.560Z,9.80
2022-12-07T07:15:51.297Z,9.90
2022-12-07T07:18:18.973Z,9.80
2022-12-07T07:20:46.636Z,9.80
2022-12-07T07:23:14.576Z,9.80
2022-12-07T07:25:42.231Z,9.80
2022-12-07T07:28:11.385Z,9.80
2022-12-07T07:30:38.981Z,9.80
2022-12-07T07:33:06.987Z,9.80
2022-12-07T07:35:35.066Z,9.80
2022-12-07T07:38:02.609Z,9.80
2022-12-07T07:40:30.208Z,9.80
2022-12-07T07:42:57.823Z,9.80
2022-12-07T07:45:27.766Z,9.80
2022-12-07T07:47:55.405Z,9.80
2022-12-07T07:50:22.960Z,9.90
2022-12-07T07:52:50.665Z,9.80
2022-12-07T07:55:18.491Z,9.80
2022-12-07T07:57:51.216Z,9.80
2022-12-07T08:00:23.010Z,9.80
2022-12-07T08:02:52.262Z,9.80
2022-12-07T08:05:19.957Z,9.80
2022-12-07T08:07:47.828Z,9.80
2022-12-07T08:10:15.546Z,9.80
2022-12-07T08:12:44.040Z,9.80
2022-12-07T08:15:12.162Z,9.70
2022-12-07T08:17:39.857Z,9.70
2022-12-07T08:20:09.785Z,9.70
2022-12-07T08:22:37.455Z,9.70
2022-12-07T08:25:05.446Z,9.70
2022-12-07T08:27:33.138Z,9.70
2022-12-07T08:30:01.141Z,9.70
2022-12-07T08:32:29.503Z,9.70
2022-12-07T08:34:57.094Z,9.60
2022-12-07T08:37:26.435Z,9.60
2022-12-07T08:39:54.301Z,9.60
2022-12-07T08:42:21.919Z,9.60
2022-12-07T08:44:49.732Z,9.70
2022-12-07T08:47:17.588Z,9.70
2022-12-07T08:49:46.589Z,9.60
2022-12-07T08:52:14.231Z,9.60
2022-12-07T08:54:43.285Z,9.60
2022-12-07T08:57:11.115Z,9.70
2022-12-07T08:59:38.756Z,9.60
2022-12-07T09:02:06.748Z,9.60
2022-12-07T09:04:34.571Z,9.60
2022-12-07T09:07:02.513Z,9.70
2022-12-07T09:09:30.639Z,9.70
2022-12-07T09:11:59.922Z,9.70
2022-12-07T09:14:27.970Z,9.70
2022-12-07T09:16:55.575Z,9.70
2022-12-07T09:19:23.370Z,9.70
2022-12-07T09:21:51.042Z,9.60
2022-12-07T09:24:18.800Z,9.70
2022-12-07T09:26:46.565Z,9.60
2022-12-07T09:29:15.638Z,9.70
2022-12-07T09:31:43.281Z,9.70
2022-12-07T09:34:11.182Z,9.70
2022-12-07T09:36:38.865Z,9.70
2022-12-07T09:39:06.609Z,9.70
2022-12-07T09:41:34.129Z,9.60
2022-12-07T09:44:05.634Z,9.60
2022-12-07T09:46:37.789Z,9.60
2022-12-07T09:49:05.825Z,9.60
2022-12-07T09:51:33.735Z,9.50
2022-12-07T09:54:01.328Z,9.50
2022-12-07T09:56:30.589Z,9.50
2022-12-07T09:59:00.835Z,9.50
2022-12-07T10:01:30.954Z,9.60
2022-12-07T10:04:07.379Z,9.60
2022-12-07T10:06:34.945Z,9.60
2022-12-07T10:09:02.495Z,9.50
2022-12-07T10:11:30.002Z,9.60
2022-12-07T10:13:57.583Z,9.60
2022-12-07T10:16:37.231Z,9.60
2022-12-07T10:22:11.459Z,9.60
2022-12-07T10:24:39.242Z,9.60
2022-12-07T10:27:10.742Z,9.60
2022-12-07T10:29:38.997Z,9.60
2022-12-07T10:32:08.047Z,9.60
2022-12-07T10:34:41.655Z,9.60
2022-12-07T10:37:21.043Z,9.70
2022-12-07T10:39:49.927Z,9.70
2022-12-07T10:42:19.504Z,9.60
2022-12-07T10:44:47.411Z,9.60
2022-12-07T10:47:26.280Z,9.60
2022-12-07T10:50:18.619Z,9.70
2022-12-07T10:53:27.716Z,9.60
2022-12-07T10:56:07.765Z,9.60
2022-12-07T10:58:49.522Z,9.60
2022-12-07T11:01:23.084Z,9.60
2022-12-07T11:03:58.071Z,9.60
2022-12-07T11:06:30.541Z,9.60
2022-12-07T11:09:17.588Z,9.60
2022-12-07T11:11:49.525Z,9.60
2022-12-07T11:14:20.619Z,9.60
2022-12-07T11:16:55.905Z,9.60
2022-12-07T11:19:42.125Z,9.60
2022-12-07T11:22:14.091Z,9.60
2022-12-07T11:24:48.566Z,9.60
2022-12-07T11:27:21.922Z,9.60
2022-12-07T11:30:15.039Z,9.60
2022-12-07T11:33:04.164Z,9.60
2022-12-07T11:35:39.535Z,9.60
2022-12-07T11:38:11.706Z,9.60
2022-12-07T11:40:39.350Z,9.60
2022-12-07T11:43:12.611Z,9.60
2022-12-07T11:45:42.955Z,9.70
2022-12-07T11:48:14.504Z,9.70
2022-12-07T11:50:43.621Z,9.70
2022-12-07T11:53:17.393Z,9.70
2022-12-07T11:55:48.412Z,9.70
2022-12-07T11:58:37.065Z,9.70
2022-12-07T12:01:12.752Z,9.80
2022-12-07T12:03:42.128Z,9.80
2022-12-07T12:06:09.550Z,9.80
2022-12-07T12:11:34.001Z,9.80
2022-12-07T12:14:33.554Z,9.80
2022-12-07T12:17:21.912Z,9.90
2022-12-07T12:20:00.704Z,9.90
2022-12-07T12:22:33.671Z,9.90
2022-12-07T12:25:01.585Z,10.00
2022-12-07T12:27:30.758Z,10.00
2022-12-07T12:30:01.026Z,10.00
2022-12-07T12:32:35.991Z,10.00
2022-12-07T12:35:19.720Z,10.10
2022-12-07T12:37:47.129Z,10.10
2022-12-07T12:40:45.651Z,10.10
2022-12-07T12:43:49.688Z,10.20
2022-12-07T12:46:53.608Z,10.20
2022-12-07T12:50:11.015Z,10.20
2022-12-07T12:52:57.344Z,10.20
2022-12-07T12:56:19.824Z,10.20
2022-12-07T12:58:50.456Z,10.30
2022-12-07T13:01:48.076Z,10.20
2022-12-07T13:04:48.973Z,10.30
2022-12-07T13:07:49.972Z,10.30
2022-12-07T13:10:35.782Z,10.40
2022-12-07T13:13:09.146Z,10.40
2022-12-07T13:15:41.171Z,10.40
2022-12-07T13:18:28.620Z,10.40
2022-12-07T13:21:00.246Z,10.50
2022-12-07T13:23:33.445Z,10.50
2022-12-07T13:26:18.470Z,10.50
2022-12-07T13:28:50.474Z,10.50
2022-12-07T13:31:34.982Z,10.50
2022-12-07T13:34:29.543Z,10.60
2022-12-07T13:37:02.360Z,10.60
2022-12-07T13:39:35.392Z,10.50
2022-12-07T13:42:16.982Z,10.60
2022-12-07T13:44:46.117Z,10.60
2022-12-07T13:47:18.552Z,10.50
2022-12-07T13:49:53.761Z,10.60
2022-12-07T13:52:30.559Z,10.60
2022-12-07T13:55:17.081Z,10.50
2022-12-07T13:57:49.688Z,10.50
2022-12-07T14:00:19.638Z,10.50
2022-12-07T14:02:56.656Z,10.40
2022-12-07T14:05:26.302Z,10.40
2022-12-07T14:07:56.158Z,10.40
2022-12-07T14:10:27.530Z,10.40
2022-12-07T14:12:56.450Z,10.40
2022-12-07T14:15:25.036Z,10.40
2022-12-07T14:17:52.751Z,10.30
2022-12-07T14:20:34.550Z,10.40
2022-12-07T14:23:02.133Z,10.40
2022-12-07T14:25:29.674Z,10.30
2022-12-07T14:27:59.394Z,10.30
2022-12-07T14:30:28.867Z,10.30
2022-12-07T14:32:59.050Z,10.30
2022-12-07T14:35:26.757Z,10.30
2022-12-07T14:37:54.421Z,10.30
2022-12-07T14:40:22.916Z,10.40
2022-12-07T14:42:52.802Z,10.30
2022-12-07T14:45:23.525Z,10.30
2022-12-07T14:53:30.354Z,10.30
2022-12-07T14:55:57.981Z,10.30
2022-12-07T14:58:25.624Z,10.30
2022-12-07T15:00:54.821Z,10.30
2022-12-07T15:03:22.655Z,10.30
2022-12-07T15:05:50.242Z,10.30
2022-12-07T15:08:17.983Z,10.30
2022-12-07T15:10:45.836Z,10.30
2022-12-07T15:13:13.575Z,10.30
2022-12-07T15:15:41.199Z,10.30
2022-12-07T15:18:10.425Z,10.30
2022-12-07T15:20:38.034Z,10.30
2022-12-07T15:23:05.745Z,10.30
2022-12-07T15:25:33.544Z,10.30
2022-12-07T15:28:01.238Z,10.30
2022-12-07T15:30:29.061Z,10.30
2022-12-07T15:32:56.808Z,10.30
2022-12-07T15:35:25.886Z,10.30
2022-12-07T15:37:53.458Z,10.30
2022-12-07T15:40:21.389Z,10.30
2022-12-07T15:42:49.005Z,10.30
2022-12-07T15:45:16.788Z,10.30
2022-12-07T15:48:19.937Z,10.20
2022-12-07T15:50:34.588Z,10.30
2022-12-07T15:53:02.301Z,10.30
2022-12-07T15:55:29.908Z,10.20
2022-12-07T15:57:57.525Z,10.20
2022-12-07T16:00:25.656Z,10.20
2022-12-07T16:02:53.381Z,10.20
2022-12-07T16:05:21.155Z,10.20
2022-12-07T16:07:50.655Z,10.20
2022-12-07T16:10:18.485Z,10.20
2022-12-07T16:12:46.066Z,10.20
2022-12-07T16:15:13.811Z,10.10
2022-12-07T16:17:41.401Z,10.20
2022-12-07T16:20:10.717Z,10.20
2022-12-07T16:22:38.664Z,10.20
2022-12-07T16:25:08.571Z,10.20
2022-12-07T16:27:36.341Z,10.10
2022-12-07T16:30:05.210Z,10.10
2022-12-07T16:32:32.830Z,10.20
2022-12-07T16:35:00.519Z,10.10
2022-12-07T16:37:28.560Z,10.10
2022-12-07T16:39:56.164Z,10.20
2022-12-07T16:42:25.577Z,10.10
2022-12-07T16:44:53.395Z,10.10
2022-12-07T16:47:21.150Z,10.10
2022-12-07T16:49:48.909Z,10.10
2022-12-07T16:52:20.975Z,10.10
2022-12-07T16:54:49.534Z,10.10
2022-12-07T16:57:22.367Z,10.10
2022-12-07T16:59:52.630Z,10.10
2022-12-07T17:02:20.434Z,10.10
2022-12-07T17:04:48.153Z,10.10
2022-12-07T17:07:15.837Z,10.10
2022-12-07T17:09:43.830Z,10.10
2022-12-07T17:12:11.446Z,10.10
2022-12-07T17:14:39.471Z,10.10
2022-12-07T17:17:08.620Z,10.10
2022-12-07T17:19:36.095Z,10.00
2022-12-07T17:22:03.742Z,10.10
2022-12-07T17:24:31.365Z,10.10
2022-12-07T17:26:59.163Z,10.00
2022-12-07T17:29:26.867Z,10.00
2022-12-07T17:31:54.755Z,10.00
2022-12-07T17:34:23.967Z,10.00
2022-12-07T17:36:51.562Z,10.00
2022-12-07T17:39:19.353Z,10.00
2022-12-07T17:41:47.182Z,10.00
2022-12-07T17:44:16.153Z,9.90
2022-12-07T17:46:43.998Z,10.00
2022-12-07T17:49:11.487Z,10.00
2022-12-07T17:51:40.642Z,9.90
2022-12-07T17:54:08.516Z,9.90
2022-12-07T17:56:36.345Z,9.90
2022-12-07T17:59:04.132Z,9.90
2022-12-07T18:01:34.751Z,9.90
2022-12-07T18:04:02.991Z,9.90
2022-12-07T18:06:30.701Z,9.90
2022-12-07T18:08:59.950Z,9.80
2022-12-07T18:11:27.526Z,9.80
2022-12-07T18:13:55.159Z,9.80
2022-12-07T18:16:23.852Z,9.80
2022-12-07T18:18:52.939Z,9.80
2022-12-07T18:21:22.350Z,9.80
2022-12-07T18:23:50.978Z,9.80
2022-12-07T18:26:20.329Z,9.80
2022-12-07T18:28:47.927Z,9.80
2022-12-07T18:31:16.095Z,9.80
2022-12-07T18:33:44.533Z,9.80
2022-12-07T18:36:12.277Z,9.80
2022-12-07T18:38:40.839Z,9.80
2022-12-07T18:41:08.594Z,9.90
2022-12-07T18:43:37.784Z,9.80
2022-12-07T18:46:10.802Z,9.80
2022-12-07T18:48:38.437Z,9.80
2022-12-07T18:51:06.697Z,9.80
2022-12-07T18:53:34.455Z,9.80
2022-12-07T18:56:03.130Z,9.80
2022-12-07T18:58:30.692Z,9.80
2022-12-07T19:01:00.038Z,9.70
2022-12-07T19:03:33.086Z,9.80
2022-12-07T19:06:06.557Z,9.70
2022-12-07T19:08:34.063Z,9.70
2022-12-07T19:11:01.745Z,9.70
2022-12-07T19:13:29.344Z,9.70
2022-12-07T19:15:57.010Z,9.70
2022-12-07T19:18:26.278Z,9.70
2022-12-07T19:20:54.001Z,9.70
2022-12-07T19:23:21.662Z,9.70
2022-12-07T19:25:49.391Z,9.70
2022-12-07T19:28:17.179Z,9.70
2022-12-07T19:30:45.011Z,9.60
2022-12-07T19:33:12.645Z,9.60
2022-12-07T19:35:41.537Z,9.60
2022-12-07T19:38:08.936Z,9.70
2022-12-07T19:40:36.747Z,9.70
2022-12-07T19:43:04.110Z,9.70
2022-12-07T19:45:31.825Z,9.70
2022-12-07T19:47:59.390Z,9.70
2022-12-07T19:50:27.108Z,9.70
2022-12-07T19:52:56.210Z,9.70
2022-12-07T19:55:23.725Z,9.70
2022-12-07T19:57:51.276Z,9.70
2022-12-07T20:00:19.503Z,9.60
2022-12-07T20:02:47.241Z,9.70
2022-12-07T20:05:14.796Z,9.70
2022-12-07T20:07:42.609Z,9.70
2022-12-07T20:10:11.871Z,9.70
2022-12-07T20:12:39.508Z,9.70
2022-12-07T20:15:07.534Z,9.70
2022-12-07T20:17:34.989Z,9.70
2022-12-07T20:20:02.400Z,9.70
2022-12-07T20:22:30.118Z,9.70
2022-12-07T20:24:57.472Z,9.70
2022-12-07T20:27:26.364Z,9.70
2022-12-07T20:29:53.723Z,9.70
2022-12-07T20:32:21.074Z,9.70
2022-12-07T20:34:48.492Z,9.70
2022-12-07T20:37:15.888Z,9.70
2022-12-07T20:39:43.357Z,9.70
2022-12-07T20:42:11.294Z,9.70
2022-12-07T20:44:40.407Z,9.70
2022-12-07T20:47:08.129Z,9.70
2022-12-07T20:49:35.546Z,9.60
2022-12-07T20:52:02.985Z,9.60
2022-12-07T20:54:30.614Z,9.60
2022-12-07T20:56:58.421Z,9.60
2022-12-07T20:59:26.136Z,9.60
2022-12-07T21:01:55.443Z,9.60
2022-12-07T21:04:23.194Z,9.60
2022-12-07T21:06:50.914Z,9.50
2022-12-07T21:09:18.555Z,9.50
2022-12-07T21:11:46.014Z,9.50
2022-12-07T21:14:13.744Z,9.50
2022-12-07T21:16:41.428Z,9.50
2022-12-07T21:19:10.654Z,9.50
2022-12-07T21:21:38.162Z,9.50
2022-12-07T21:24:06.616Z,9.50
2022-12-07T21:26:35.017Z,9.50
2022-12-07T21:29:02.856Z,9.50
2022-12-07T21:31:30.598Z,9.50
2022-12-07T21:33:58.426Z,9.50
2022-12-07T21:36:27.289Z,9.60
2022-12-07T21:38:54.887Z,9.50
2022-12-07T21:41:23.409Z,9.50
2022-12-07T21:43:51.048Z,9.60
2022-12-07T21:46:18.930Z,9.50
2022-12-07T21:48:50.247Z,9.50
2022-12-07T21:51:17.943Z,9.50
2022-12-07T21:53:47.178Z,9.50
2022-12-07T21:56:15.410Z,9.50
2022-12-07T21:58:42.993Z,9.50
2022-12-07T22:01:15.901Z,9.50
2022-12-07T22:03:43.695Z,9.50
2022-12-07T22:06:13.686Z,9.40
2022-12-07T22:08:41.755Z,9.40
2022-12-07T22:11:11.026Z,9.40
2022-12-07T22:13:38.839Z,9.40
2022-12-07T22:16:07.585Z,9.40
2022-12-07T22:18:35.273Z,9.40
2022-12-07T22:21:03.012Z,9.40
2022-12-07T22:23:32.665Z,9.40
2022-12-07T22:26:04.419Z,9.40
2022-12-07T22:28:33.675Z,9.40
2022-12-07T22:31:03.395Z,9.40
2022-12-07T22:33:31.103Z,9.40
2022-12-07T22:35:58.763Z,9.40
2022-12-07T22:38:26.461Z,9.40
2022-12-07T22:40:54.078Z,9.40
2022-12-07T22:43:21.933Z,9.40
2022-12-07T22:45:56.391Z,9.40
2022-12-07T22:48:24.066Z,9.40
2022-12-07T22:50:51.614Z,9.40
2022-12-07T22:53:19.215Z,9.40
2022-12-07T22:55:46.993Z,9.40
2022-12-07T22:58:14.715Z,9.30
2022-12-07T23:00:42.535Z,9.30
2022-12-07T23:03:11.891Z,9.30
2022-12-07T23:05:42.113Z,9.40
2022-12-07T23:08:10.111Z,9.30
2022-12-07T23:10:41.716Z,9.30
2022-12-07T23:13:11.558Z,9.30
2022-12-07T23:15:39.266Z,9.30
2022-12-07T23:18:06.902Z,9.30
2022-12-07T23:20:36.175Z,9.30
2022-12-07T23:23:03.850Z,9.30
2022-12-07T23:25:32.613Z,9.30
2022-12-07T23:28:00.241Z,9.30
2022-12-07T23:30:27.822Z,9.30
2022-12-07T23:32:55.513Z,9.30
2022-12-07T23:35:23.051Z,9.30
2022-12-07T23:37:52.272Z,9.30
2022-12-07T23:40:20.007Z,9.30
2022-12-07T23:42:47.562Z,9.20
2022-12-07T23:45:15.163Z,9.20
2022-12-07T23:47:42.830Z,9.20
2022-12-07T23:50:10.831Z,9.20
2022-12-07T23:52:38.461Z,9.30
2022-12-07T23:55:09.304Z,9.20
2022-12-07T23:57:36.911Z,9.20
